createdAt,value
2022-08-09T00:01:10.317Z,101091.06
2022-08-09T00:04:05.534Z,101088.87
2022-08-09T00:06:38.026Z,101088.36
2022-08-09T00:09:10.520Z,101088.25
2022-08-09T00:12:03.830Z,101092.33
2022-08-09T00:14:38.352Z,101089.77
2022-08-09T00:17:15.132Z,101089.80
2022-08-09T00:20:01.902Z,101090.86
2022-08-09T00:22:36.318Z,101091.88
2022-08-09T00:25:12.818Z,101092.63
2022-08-09T00:27:44.236Z,101094.46
2022-08-09T00:30:26.030Z,101092.82
2022-08-09T00:32:58.348Z,101094.04
2022-08-09T00:35:29.943Z,101092.86
2022-08-09T00:38:16.064Z,101096.92
2022-08-09T00:40:54.039Z,101099.58
2022-08-09T00:44:15.860Z,101095.59
2022-08-09T00:46:44.098Z,101096.20
2022-08-09T00:49:10.954Z,101097.52
2022-08-09T00:51:42.718Z,101094.41
2022-08-09T00:54:31.524Z,101097.59
2022-08-09T00:57:10.311Z,101094.77
2022-08-09T00:59:46.306Z,101097.97
2022-08-09T01:02:23.097Z,101103.02
2022-08-09T01:05:03.281Z,101100.00
2022-08-09T01:07:59.748Z,101100.23
2022-08-09T01:10:39.404Z,101098.17
2022-08-09T01:13:22.371Z,101096.87
2022-08-09T01:15:56.753Z,101096.11
2022-08-09T01:18:32.586Z,101100.61
2022-08-09T01:21:18.411Z,101101.36
2022-08-09T01:24:04.998Z,101103.38
2022-08-09T01:27:02.490Z,101105.80
2022-08-09T01:29:56.095Z,101103.97
2022-08-09T01:32:34.258Z,101109.89
2022-08-09T01:35:38.047Z,101113.68
2022-08-09T01:38:10.761Z,101109.42
2022-08-09T01:40:52.926Z,101110.90
2022-08-09T01:43:50.577Z,101108.27
2022-08-09T01:46:27.699Z,101104.54
2022-08-09T01:49:09.431Z,101106.95
2022-08-09T01:51:54.011Z,101108.46
2022-08-09T01:54:32.550Z,101108.89
2022-08-09T01:57:14.964Z,101113.95
2022-08-09T01:59:51.651Z,101113.73
2022-08-09T02:02:30.105Z,101119.10
2022-08-09T02:05:15.719Z,101118.24
2022-08-09T02:08:39.194Z,101116.08
2022-08-09T02:10:50.683Z,101117.13
2022-08-09T02:13:26.108Z,101114.73
2022-08-09T02:16:11.573Z,101113.21
2022-08-09T02:18:47.654Z,101122.20
2022-08-09T02:21:24.898Z,101124.20
2022-08-09T02:24:02.040Z,101123.69
2022-08-09T02:26:36.013Z,101122.86
2022-08-09T02:29:18.109Z,101123.41
2022-08-09T02:31:51.583Z,101124.54
2022-08-09T02:34:40.161Z,101125.55
2022-08-09T02:37:16.654Z,101125.12
2022-08-09T02:39:55.206Z,101126.70
2022-08-09T02:42:36.502Z,101128.82
2022-08-09T02:45:13.231Z,101128.84
2022-08-09T02:47:59.203Z,101131.73
2022-08-09T02:50:36.499Z,101130.29
2022-08-09T02:53:25.822Z,101134.00
2022-08-09T02:56:01.139Z,101133.34
2022-08-09T02:58:36.681Z,101138.14
2022-08-09T03:01:15.106Z,101134.80
2022-08-09T03:04:17.011Z,101139.09
2022-08-09T03:06:49.232Z,101138.52
2022-08-09T03:09:21.995Z,101140.89
2022-08-09T03:12:11.023Z,101132.68
2022-08-09T03:14:44.343Z,101144.15
2022-08-09T03:17:26.409Z,101143.66
2022-08-09T03:20:05.172Z,101137.55
2022-08-09T03:22:56.833Z,101136.59
2022-08-09T03:25:56.944Z,101132.67
2022-08-09T03:28:24.605Z,101137.73
2022-08-09T03:30:57.859Z,101139.98
2022-08-09T03:33:53.484Z,101140.67
2022-08-09T03:36:37.818Z,101141.00
2022-08-09T03:39:16.931Z,101140.42
2022-08-09T03:42:06.395Z,101140.23
2022-08-09T03:44:44.335Z,101141.75
2022-08-09T03:47:16.035Z,101139.52
2022-08-09T03:49:58.273Z,101139.77
2022-08-09T03:52:33.191Z,101139.11
2022-08-09T03:55:09.900Z,101141.14
2022-08-09T03:57:53.468Z,101140.02
2022-08-09T04:00:34.629Z,101142.73
2022-08-09T04:03:08.536Z,101145.67
2022-08-09T04:05:43.838Z,101147.39
2022-08-09T04:08:17.182Z,101151.39
2022-08-09T04:10:49.797Z,101152.33
2022-08-09T04:13:45.105Z,101154.73
2022-08-09T04:16:20.632Z,101154.46
2022-08-09T04:18:52.906Z,101149.88
2022-08-09T04:21:25.532Z,101149.27
2022-08-09T04:23:57.555Z,101148.87
2022-08-09T04:26:35.203Z,101151.23
2022-08-09T04:29:15.690Z,101156.66
2022-08-09T04:31:47.885Z,101159.33
2022-08-09T04:34:31.958Z,101159.45
2022-08-09T04:37:04.066Z,101154.05
2022-08-09T04:39:40.593Z,101158.70
2022-08-09T04:42:15.891Z,101159.54
2022-08-09T04:44:49.903Z,101163.41
2022-08-09T04:47:25.283Z,101168.38
2022-08-09T04:50:04.769Z,101168.88
2022-08-09T04:52:36.655Z,101173.20
2022-08-09T04:55:11.990Z,101171.96
2022-08-09T04:57:58.923Z,101171.46
2022-08-09T05:00:36.052Z,101174.48
2022-08-09T05:03:30.617Z,101177.84
2022-08-09T05:06:06.414Z,101177.02
2022-08-09T05:08:43.910Z,101175.20
2022-08-09T05:11:19.151Z,101173.70
2022-08-09T05:13:55.050Z,101171.20
2022-08-09T05:16:31.751Z,101168.11
2022-08-09T05:19:03.768Z,101171.27
2022-08-09T05:21:47.173Z,101174.66
2022-08-09T05:24:27.360Z,101176.93
2022-08-09T05:26:59.461Z,101180.14
2022-08-09T05:29:35.412Z,101182.22
2022-08-09T05:32:08.326Z,101181.57
2022-08-09T05:34:42.913Z,101184.11
2022-08-09T05:37:17.215Z,101184.08
2022-08-09T05:39:48.755Z,101187.20
2022-08-09T05:42:33.405Z,101189.56
2022-08-09T05:45:06.090Z,101190.24
2022-08-09T05:47:45.609Z,101195.52
2022-08-09T05:50:44.315Z,101196.29
2022-08-09T05:53:30.955Z,101196.86
2022-08-09T05:56:05.156Z,101193.67
2022-08-09T05:58:36.676Z,101192.75
2022-08-09T06:01:08.120Z,101192.13
2022-08-09T06:03:57.991Z,101194.14
2022-08-09T06:06:30.176Z,101189.89
2022-08-09T06:09:09.912Z,101185.53
2022-08-09T06:11:56.911Z,101189.46
2022-08-09T06:14:28.554Z,101192.51
2022-08-09T06:17:09.155Z,101195.98
2022-08-09T06:19:41.388Z,101194.82
2022-08-09T06:22:15.438Z,101198.17
2022-08-09T06:24:47.049Z,101200.91
2022-08-09T06:27:20.616Z,101200.11
2022-08-09T06:29:58.581Z,101199.23
2022-08-09T06:32:59.733Z,101205.05
2022-08-09T06:35:55.924Z,101207.85
2022-08-09T06:38:19.961Z,101212.45
2022-08-09T06:41:03.682Z,101217.65
2022-08-09T06:43:35.214Z,101217.21
2022-08-09T06:46:11.276Z,101218.89
2022-08-09T06:49:02.517Z,101221.08
2022-08-09T06:51:39.139Z,101221.19
2022-08-09T06:54:15.015Z,101219.95
2022-08-09T06:56:47.025Z,101224.73
2022-08-09T07:00:49.910Z,101223.75
2022-08-09T07:02:10.262Z,101226.34
2022-08-09T07:04:41.829Z,101226.55
2022-08-09T07:08:00.144Z,101230.25
2022-08-09T07:10:22.404Z,101231.66
2022-08-09T07:12:57.754Z,101232.31
2022-08-09T07:16:38.721Z,101234.84
2022-08-09T07:18:21.442Z,101239.73
2022-08-09T07:20:52.791Z,101238.14
2022-08-09T07:23:24.379Z,101244.89
2022-08-09T07:26:02.667Z,101247.10
2022-08-09T07:28:35.077Z,101250.55
2022-08-09T07:31:08.392Z,101251.02
2022-08-09T07:33:52.995Z,101252.41
2022-08-09T07:36:27.146Z,101249.40
2022-08-09T07:39:01.060Z,101246.77
2022-08-09T07:41:38.658Z,101251.54
2022-08-09T07:44:15.751Z,101250.45
2022-08-09T07:46:55.629Z,101249.23
2022-08-09T07:49:29.476Z,101244.36
2022-08-09T07:52:27.083Z,101244.00
2022-08-09T07:54:57.548Z,101242.42
2022-08-09T07:57:33.954Z,101238.10
2022-08-09T08:00:10.714Z,101232.06
2022-08-09T08:02:42.360Z,101234.61
2022-08-09T08:05:18.050Z,101238.48
2022-08-09T08:08:45.217Z,101234.98
2022-08-09T08:10:48.761Z,101239.12
2022-08-09T08:13:40.038Z,101240.73
2022-08-09T08:16:29.534Z,101242.17
2022-08-09T08:19:04.489Z,101241.16
2022-08-09T08:21:39.735Z,101243.45
2022-08-09T08:24:16.627Z,101242.27
2022-08-09T08:26:55.731Z,101245.12
2022-08-09T08:29:39.405Z,101244.04
2022-08-09T08:32:27.477Z,101243.80
2022-08-09T08:35:01.412Z,101243.66
2022-08-09T08:37:41.955Z,101247.42
2022-08-09T08:40:26.968Z,101249.42
2022-08-09T08:43:01.513Z,101249.60
2022-08-09T08:45:50.746Z,101250.66
2022-08-09T08:48:29.230Z,101246.33
2022-08-09T08:51:02.590Z,101246.95
2022-08-09T08:53:37.233Z,101248.38
2022-08-09T08:56:16.784Z,101249.86
2022-08-09T08:58:57.124Z,101249.51
2022-08-09T09:01:28.617Z,101246.99
2022-08-09T09:04:17.874Z,101247.06
2022-08-09T09:07:02.959Z,101250.21
2022-08-09T09:09:57.910Z,101249.70
2022-08-09T09:12:35.603Z,101247.89
2022-08-09T09:15:08.795Z,101249.28
2022-08-09T09:17:49.609Z,101250.10
2022-08-09T09:20:25.794Z,101252.48
2022-08-09T09:23:01.613Z,101248.52
2022-08-09T09:26:03.210Z,101250.29
2022-08-09T09:29:01.801Z,101254.48
2022-08-09T09:32:06.815Z,101259.56
2022-08-09T09:34:19.869Z,101262.05
2022-08-09T09:36:54.493Z,101263.55
2022-08-09T09:39:54.898Z,101266.35
2022-08-09T09:42:28.058Z,101264.08
2022-08-09T09:45:05.561Z,101264.60
2022-08-09T09:47:47.676Z,101268.28
2022-08-09T09:50:51.039Z,101262.42
2022-08-09T09:53:43.893Z,101264.59
2022-08-09T09:56:30.956Z,101260.40
2022-08-09T09:59:03.707Z,101259.70
2022-08-09T10:01:38.152Z,101258.05
2022-08-09T10:04:22.844Z,101255.78
2022-08-09T10:07:03.288Z,101255.88
2022-08-09T10:09:54.579Z,101256.15
2022-08-09T10:12:34.708Z,101255.02
2022-08-09T10:15:25.383Z,101257.23
2022-08-09T10:18:15.239Z,101257.30
2022-08-09T10:20:48.141Z,101256.52
2022-08-09T10:23:24.266Z,101260.19
2022-08-09T10:26:08.093Z,101257.16
2022-08-09T10:28:48.778Z,101255.02
2022-08-09T10:34:32.965Z,101256.45
2022-08-09T10:37:09.644Z,101252.55
2022-08-09T10:39:48.903Z,101257.35
2022-08-09T10:42:21.215Z,101255.27
2022-08-09T10:45:01.552Z,101254.45
2022-08-09T10:48:20.265Z,101255.83
2022-08-09T10:51:09.770Z,101251.24
2022-08-09T10:53:58.597Z,101252.45
2022-08-09T10:56:35.093Z,101252.13
2022-08-09T10:59:43.177Z,101250.35
2022-08-09T11:03:16.530Z,101248.46
2022-08-09T11:05:32.883Z,101255.06
2022-08-09T11:11:08.755Z,101244.98
2022-08-09T11:13:54.489Z,101251.96
2022-08-09T11:16:41.023Z,101249.29
2022-08-09T11:19:13.126Z,101245.85
2022-08-09T11:22:16.583Z,101242.36
2022-08-09T11:25:14.565Z,101236.55
2022-08-09T11:28:03.789Z,101237.52
2022-08-09T11:30:39.782Z,101235.30
2022-08-09T11:33:50.251Z,101230.00
2022-08-09T11:36:35.687Z,101230.80
2022-08-09T11:39:08.652Z,101229.84
2022-08-09T11:41:43.168Z,101228.92
2022-08-09T11:44:17.358Z,101227.33
2022-08-09T11:46:57.380Z,101227.71
2022-08-09T11:50:54.017Z,101226.91
2022-08-09T11:53:59.385Z,101224.89
2022-08-09T11:56:41.751Z,101221.83
2022-08-09T11:59:30.594Z,101217.27
2022-08-09T12:02:18.087Z,101216.85
2022-08-09T12:04:58.850Z,101215.23
2022-08-09T12:07:41.503Z,101216.89
2022-08-09T12:10:38.294Z,101219.23
2022-08-09T12:14:09.658Z,101212.19
2022-08-09T12:16:06.900Z,101209.14
2022-08-09T12:18:59.200Z,101206.45
2022-08-09T12:21:38.713Z,101208.44
2022-08-09T12:24:13.190Z,101203.77
2022-08-09T12:29:13.384Z,101199.35
2022-08-09T12:29:51.297Z,101196.22
2022-08-09T12:32:30.016Z,101192.40
2022-08-09T12:35:05.083Z,101187.95
2022-08-09T12:37:50.316Z,101189.98
2022-08-09T12:40:27.491Z,101188.83
2022-08-09T12:42:59.724Z,101180.34
2022-08-09T12:45:35.018Z,101178.36
2022-08-09T12:48:27.937Z,101180.01
2022-08-09T12:51:04.819Z,101182.41
2022-08-09T12:53:40.955Z,101177.29
2022-08-09T12:56:40.181Z,101176.64
2022-08-09T12:59:12.049Z,101182.02
2022-08-09T13:01:49.858Z,101175.67
2022-08-09T13:04:36.294Z,101169.73
2022-08-09T13:07:19.406Z,101167.75
2022-08-09T13:10:05.476Z,101164.81
2022-08-09T13:13:09.127Z,101157.54
2022-08-09T13:15:54.086Z,101157.46
2022-08-09T13:18:27.833Z,101156.55
2022-08-09T13:22:34.111Z,101160.27
2022-08-09T13:24:07.004Z,101157.35
2022-08-09T13:26:53.624Z,101155.13
2022-08-09T13:29:41.913Z,101154.44
2022-08-09T13:32:26.601Z,101158.67
2022-08-09T13:35:00.405Z,101156.02
2022-08-09T13:37:52.302Z,101154.89
2022-08-09T13:41:46.924Z,101155.11
2022-08-09T13:43:19.030Z,101155.41
2022-08-09T13:46:43.249Z,101143.84
2022-08-09T13:48:42.820Z,101150.20
2022-08-09T13:51:20.064Z,101150.45
2022-08-09T13:53:52.695Z,101146.05
2022-08-09T13:56:25.532Z,101144.92
2022-08-09T13:58:57.211Z,101147.13
2022-08-09T14:01:56.482Z,101142.05
2022-08-09T14:04:23.924Z,101145.10
2022-08-09T14:07:00.399Z,101143.69
2022-08-09T14:09:35.656Z,101149.73
2022-08-09T14:12:15.484Z,101143.33
2022-08-09T14:14:47.447Z,101142.23
2022-08-09T14:17:25.690Z,101139.49
2022-08-09T14:20:05.718Z,101143.82
2022-08-09T14:22:38.696Z,101136.61
2022-08-09T14:25:12.563Z,101141.02
2022-08-09T14:27:56.991Z,101139.55
2022-08-09T14:30:37.267Z,101139.40
2022-08-09T14:33:13.258Z,101141.85
2022-08-09T14:35:53.470Z,101141.39
2022-08-09T14:38:25.112Z,101138.34
2022-08-09T14:41:01.359Z,101137.11
2022-08-09T14:43:47.390Z,101146.35
2022-08-09T14:46:54.602Z,101142.10
2022-08-09T14:49:16.484Z,101135.46
2022-08-09T14:51:48.066Z,101125.98
2022-08-09T14:54:22.166Z,101128.60
2022-08-09T14:56:57.650Z,101125.98
2022-08-09T14:59:30.192Z,101125.16
2022-08-09T15:02:02.652Z,101125.10
2022-08-09T15:04:34.112Z,101128.80
2022-08-09T15:07:06.020Z,101128.27
2022-08-09T15:10:04.610Z,101127.48
2022-08-09T15:12:33.983Z,101129.97
2022-08-09T15:15:08.587Z,101128.79
2022-08-09T15:17:42.071Z,101121.14
2022-08-09T15:21:58.871Z,101123.34
2022-08-09T15:24:03.298Z,101125.27
2022-08-09T15:25:59.797Z,101121.94
2022-08-09T15:28:33.389Z,101123.72
2022-08-09T15:31:09.953Z,101124.83
2022-08-09T15:34:17.546Z,101124.67
2022-08-09T15:36:34.781Z,101125.10
2022-08-09T15:39:06.341Z,101127.00
2022-08-09T15:41:38.357Z,101129.27
2022-08-09T15:44:14.499Z,101127.38
2022-08-09T15:46:51.230Z,101124.19
2022-08-09T15:49:24.027Z,101126.95
2022-08-09T15:52:03.112Z,101121.65
2022-08-09T15:54:49.364Z,101124.27
2022-08-09T15:57:34.242Z,101126.27
2022-08-09T16:00:10.972Z,101121.76
2022-08-09T16:02:53.458Z,101123.81
2022-08-09T16:05:47.739Z,101127.92
2022-08-09T16:08:30.833Z,101129.45
2022-08-09T16:11:03.982Z,101131.34
2022-08-09T16:14:03.392Z,101131.13
2022-08-09T16:16:31.955Z,101134.20
2022-08-09T16:19:02.186Z,101129.96
2022-08-09T16:21:35.279Z,101130.70
2022-08-09T16:24:19.992Z,101136.45
2022-08-09T16:27:01.088Z,101136.44
2022-08-09T16:29:37.374Z,101133.87
2022-08-09T16:32:35.216Z,101135.55
2022-08-09T16:35:08.052Z,101139.10
2022-08-09T16:37:55.830Z,101136.36
2022-08-09T16:40:40.398Z,101134.44
2022-08-09T16:43:14.435Z,101133.79
2022-08-09T16:45:46.435Z,101139.36
2022-08-09T16:48:39.385Z,101139.27
2022-08-09T16:51:14.323Z,101138.88
2022-08-09T16:56:48.955Z,101139.46
2022-08-09T16:59:21.080Z,101138.71
2022-08-09T17:01:52.919Z,101139.96
2022-08-09T17:04:28.445Z,101138.20
2022-08-09T17:08:40.252Z,101139.45
2022-08-09T17:09:52.668Z,101141.85
2022-08-09T17:12:33.611Z,101147.09
2022-08-09T17:15:30.499Z,101147.73
2022-08-09T17:18:00.870Z,101147.52
2022-08-09T17:20:38.871Z,101148.03
2022-08-09T17:23:14.784Z,101146.10
2022-08-09T17:25:52.958Z,101149.13
2022-08-09T17:28:24.614Z,101154.50
2022-08-09T17:30:58.458Z,101155.50
2022-08-09T17:33:35.815Z,101159.91
2022-08-09T17:36:15.761Z,101157.20
2022-08-09T17:38:57.857Z,101156.91
2022-08-09T17:41:38.553Z,101163.51
2022-08-09T17:44:39.238Z,101158.67
2022-08-09T17:47:04.149Z,101157.69
2022-08-09T17:49:35.602Z,101157.63
2022-08-09T17:52:08.075Z,101156.63
2022-08-09T17:54:54.812Z,101154.89
2022-08-09T17:58:03.876Z,101150.73
2022-08-09T18:00:20.456Z,101150.72
2022-08-09T18:03:06.700Z,101150.35
2022-08-09T18:05:43.682Z,101151.38
2022-08-09T18:08:16.212Z,101153.65
2022-08-09T18:11:00.631Z,101158.05
2022-08-09T18:13:39.258Z,101157.65
2022-08-09T18:16:13.712Z,101163.85
2022-08-09T18:18:49.105Z,101165.11
2022-08-09T18:21:23.528Z,101162.59
2022-08-09T18:24:10.554Z,101169.41
2022-08-09T18:26:48.078Z,101165.58
2022-08-09T18:30:38.914Z,101169.76
2022-08-09T18:32:13.418Z,101170.16
2022-08-09T18:34:45.243Z,101174.08
2022-08-09T18:37:47.624Z,101174.12
2022-08-09T18:40:11.781Z,101177.27
2022-08-09T18:42:45.109Z,101177.69
2022-08-09T18:45:21.547Z,101181.77
2022-08-09T18:48:09.841Z,101183.25
2022-08-09T18:50:42.845Z,101186.59
2022-08-09T18:53:19.449Z,101190.27
2022-08-09T18:55:57.302Z,101191.98
2022-08-09T18:58:39.073Z,101193.02
2022-08-09T19:01:11.384Z,101196.80
2022-08-09T19:03:54.607Z,101197.27
2022-08-09T19:06:38.409Z,101195.27
2022-08-09T19:09:13.486Z,101198.66
2022-08-09T19:11:52.168Z,101204.30
2022-08-09T19:14:24.312Z,101204.17
2022-08-09T19:17:00.699Z,101206.23
2022-08-09T19:19:41.322Z,101210.08
2022-08-09T19:22:15.242Z,101209.71
2022-08-09T19:25:09.621Z,101212.00
2022-08-09T19:27:40.520Z,101213.70
2022-08-09T19:30:22.937Z,101220.23
2022-08-09T19:33:01.201Z,101217.61
2022-08-09T19:35:58.385Z,101218.39
2022-08-09T19:38:24.737Z,101215.66
2022-08-09T19:40:59.897Z,101213.95
2022-08-09T19:44:02.160Z,101213.46
2022-08-09T19:46:35.242Z,101211.77
2022-08-09T19:50:08.467Z,101212.10
2022-08-09T19:52:00.601Z,101211.34
2022-08-09T19:54:35.049Z,101212.52
2022-08-09T19:57:08.464Z,101210.34
2022-08-09T20:00:00.049Z,101205.56
2022-08-09T20:04:09.629Z,101211.19
2022-08-09T20:05:26.977Z,101207.20
2022-08-09T20:08:05.303Z,101207.86
2022-08-09T20:10:38.489Z,101207.52
2022-08-09T20:13:10.705Z,101208.66
2022-08-09T20:16:34.152Z,101210.27
2022-08-09T20:18:33.609Z,101212.11
2022-08-09T20:21:08.548Z,101212.02
2022-08-09T20:23:40.505Z,101213.34
2022-08-09T20:26:13.158Z,101210.99
2022-08-09T20:28:48.812Z,101213.45
2022-08-09T20:31:22.457Z,101215.17
2022-08-09T20:33:58.357Z,101213.71
2022-08-09T20:36:33.442Z,101214.96
2022-08-09T20:39:28.106Z,101214.25
2022-08-09T20:42:01.418Z,101212.50
2022-08-09T20:44:36.389Z,101210.67
2022-08-09T20:47:45.502Z,101209.12
2022-08-09T20:50:01.831Z,101209.70
2022-08-09T20:52:34.952Z,101209.97
2022-08-09T20:55:10.947Z,101211.73
2022-08-09T20:58:05.194Z,101214.48
2022-08-09T21:00:45.167Z,101212.09
2022-08-09T21:03:22.033Z,101209.38
2022-08-09T21:05:59.754Z,101212.19
2022-08-09T21:08:36.508Z,101211.00
2022-08-09T21:14:00.503Z,101214.45
2022-08-09T21:16:32.101Z,101216.30
2022-08-09T21:20:18.318Z,101214.90
2022-08-09T21:21:57.401Z,101214.83
2022-08-09T21:24:32.535Z,101217.61
2022-08-09T21:27:50.207Z,101217.73
2022-08-09T21:29:58.358Z,101220.19
2022-08-09T21:32:33.654Z,101221.59
2022-08-09T21:35:08.626Z,101222.86
2022-08-09T21:37:58.804Z,101227.02
2022-08-09T21:40:32.770Z,101225.33
2022-08-09T21:43:06.370Z,101229.55
2022-08-09T21:45:38.966Z,101225.95
2022-08-09T21:48:11.607Z,101228.39
2022-08-09T21:50:46.623Z,101228.28
2022-08-09T21:53:39.839Z,101223.04
2022-08-09T21:56:28.232Z,101224.59
2022-08-09T21:59:04.094Z,101222.64
2022-08-09T22:01:59.193Z,101222.40
2022-08-09T22:04:55.598Z,101222.20
2022-08-09T22:07:35.298Z,101216.44
2022-08-09T22:10:14.873Z,101215.45
2022-08-09T22:12:54.603Z,101211.55
2022-08-09T22:15:34.728Z,101210.00
2022-08-09T22:18:11.909Z,101215.20
2022-08-09T22:20:44.010Z,101218.38
2022-08-09T22:23:17.821Z,101217.83
2022-08-09T22:26:07.646Z,101221.70
2022-08-09T22:28:47.237Z,101221.83
2022-08-09T22:31:25.958Z,101219.75
2022-08-09T22:34:00.652Z,101231.17
2022-08-09T22:36:45.690Z,101228.68
2022-08-09T22:39:47.121Z,101217.86
2022-08-09T22:42:20.991Z,101220.48
2022-08-09T22:45:00.091Z,101226.90
2022-08-09T22:48:18.808Z,101228.04
2022-08-09T22:50:38.202Z,101220.91
2022-08-09T22:53:09.742Z,101219.05
2022-08-09T22:56:31.498Z,101223.32
2022-08-09T22:58:33.744Z,101223.05
2022-08-09T23:01:08.583Z,101222.91
2022-08-09T23:04:03.244Z,101222.30
2022-08-09T23:06:51.519Z,101221.90
2022-08-09T23:09:23.431Z,101217.80
2022-08-09T23:11:54.880Z,101220.94
2022-08-09T23:14:37.352Z,101223.25
2022-08-09T23:17:13.004Z,101220.98
2022-08-09T23:20:00.633Z,101221.55
2022-08-09T23:22:36.047Z,101221.34
2022-08-09T23:25:08.420Z,101223.30
2022-08-09T23:27:57.361Z,101222.48
2022-08-09T23:30:31.907Z,101222.89
2022-08-09T23:33:03.260Z,101224.66
2022-08-09T23:36:04.457Z,101226.13
2022-08-09T23:38:26.919Z,101224.77
2022-08-09T23:40:58.978Z,101220.44
2022-08-09T23:43:30.971Z,101220.45
2022-08-09T23:46:02.623Z,101218.49
2022-08-09T23:48:33.939Z,101223.30
2022-08-09T23:51:05.830Z,101223.23
2022-08-09T23:53:37.857Z,101229.10
2022-08-09T23:56:11.829Z,101231.42
2022-08-09T23:58:43.245Z,101231.93
